<?xml version="1.0" encoding="UTF-8" standalone="no" ?>
<gpx xmlns="http://www.topografix.com/GPX/1/1" xmlns:xsi="http://www.w3.org/2001/XMLSchema-instance" xsi:schemaLocation="http://www.topografix.com/GPX/1/1 http://www.topografix.com/GPX/1/1/gpx.xsd" version="1.1" creator="VisuGPX - https://www.visugpx.com">
  <metadata>
    <name>11548326-St Léger en Yvelines 250620</name>
  </metadata>
  <wpt lat="48.70818" lon="1.78619">
    <ele>181.8</ele>
  </wpt>
  <trk>
    <name><![CDATA[11548326-St Léger en Yvelines 250620]]></name>
    <trkseg>
      <trkpt lat="48.70818" lon="1.78619">
        <ele>181</ele>
        <time>2020-06-24T17:40:39Z</time>
      </trkpt>
      <trkpt lat="48.70896" lon="1.78877">
        <ele>186</ele>
        <time>2020-06-24T17:44:49Z</time>
      </trkpt>
      <trkpt lat="48.71189" lon="1.79084">
        <ele>185</ele>
        <time>2020-06-24T17:52:00Z</time>
      </trkpt>
      <trkpt lat="48.71509" lon="1.79299">
        <ele>181</ele>
        <time>2020-06-24T17:59:47Z</time>
      </trkpt>
      <trkpt lat="48.71939" lon="1.79572">
        <ele>181</ele>
        <time>2020-06-24T18:10:10Z</time>
      </trkpt>
      <trkpt lat="48.71871" lon="1.79894">
        <ele>180</ele>
        <time>2020-06-24T18:15:07Z</time>
      </trkpt>
      <trkpt lat="48.71817" lon="1.80003">
        <ele>182</ele>
        <time>2020-06-24T18:17:07Z</time>
      </trkpt>
      <trkpt lat="48.71599" lon="1.80306">
        <ele>179</ele>
        <time>2020-06-24T18:23:42Z</time>
      </trkpt>
      <trkpt lat="48.71175" lon="1.81017">
        <ele>175</ele>
        <time>2020-06-24T18:37:46Z</time>
      </trkpt>
      <trkpt lat="48.71285" lon="1.81429">
        <ele>177</ele>
        <time>2020-06-24T18:44:17Z</time>
      </trkpt>
      <trkpt lat="48.71207" lon="1.81672">
        <ele>177</ele>
        <time>2020-06-24T18:48:15Z</time>
      </trkpt>
      <trkpt lat="48.71341" lon="1.81881">
        <ele>178</ele>
        <time>2020-06-24T18:52:32Z</time>
      </trkpt>
      <trkpt lat="48.71361" lon="1.81985">
        <ele>178</ele>
        <time>2020-06-24T18:54:07Z</time>
      </trkpt>
      <trkpt lat="48.71359" lon="1.82267">
        <ele>178</ele>
        <time>2020-06-24T18:58:15Z</time>
      </trkpt>
      <trkpt lat="48.71311" lon="1.8244">
        <ele>177</ele>
        <time>2020-06-24T19:01:01Z</time>
      </trkpt>
      <trkpt lat="48.71289" lon="1.8261">
        <ele>178</ele>
        <time>2020-06-24T19:03:33Z</time>
      </trkpt>
      <trkpt lat="48.71269" lon="1.8284">
        <ele>180</ele>
        <time>2020-06-24T19:06:57Z</time>
      </trkpt>
      <trkpt lat="48.71191" lon="1.83116">
        <ele>181</ele>
        <time>2020-06-24T19:11:22Z</time>
      </trkpt>
      <trkpt lat="48.71195" lon="1.83259">
        <ele>180</ele>
        <time>2020-06-24T19:13:28Z</time>
      </trkpt>
      <trkpt lat="48.71129" lon="1.83475">
        <ele>183</ele>
        <time>2020-06-24T19:16:57Z</time>
      </trkpt>
      <trkpt lat="48.70966" lon="1.84057">
        <ele>182</ele>
        <time>2020-06-24T19:26:14Z</time>
      </trkpt>
      <trkpt lat="48.70768" lon="1.84685">
        <ele>182</ele>
        <time>2020-06-24T19:36:27Z</time>
      </trkpt>
      <trkpt lat="48.70566" lon="1.85356">
        <ele>180</ele>
        <time>2020-06-24T19:47:17Z</time>
      </trkpt>
      <trkpt lat="48.707" lon="1.85511">
        <ele>175</ele>
        <time>2020-06-24T19:51:02Z</time>
      </trkpt>
      <trkpt lat="48.70722" lon="1.85458">
        <ele>177</ele>
        <time>2020-06-24T19:51:57Z</time>
      </trkpt>
      <trkpt lat="48.70713" lon="1.85321">
        <ele>183</ele>
        <time>2020-06-24T19:53:58Z</time>
      </trkpt>
      <trkpt lat="48.7075" lon="1.85152">
        <ele>184</ele>
        <time>2020-06-24T19:56:35Z</time>
      </trkpt>
      <trkpt lat="48.70801" lon="1.84946">
        <ele>188</ele>
        <time>2020-06-24T19:59:48Z</time>
      </trkpt>
      <trkpt lat="48.70834" lon="1.84823">
        <ele>189</ele>
        <time>2020-06-24T20:01:45Z</time>
      </trkpt>
      <trkpt lat="48.7088" lon="1.84698">
        <ele>187</ele>
        <time>2020-06-24T20:03:51Z</time>
      </trkpt>
      <trkpt lat="48.70882" lon="1.84563">
        <ele>184</ele>
        <time>2020-06-24T20:05:50Z</time>
      </trkpt>
      <trkpt lat="48.70932" lon="1.84553">
        <ele>184</ele>
        <time>2020-06-24T20:06:58Z</time>
      </trkpt>
      <trkpt lat="48.70956" lon="1.84468">
        <ele>184</ele>
        <time>2020-06-24T20:08:19Z</time>
      </trkpt>
      <trkpt lat="48.71156" lon="1.84325">
        <ele>180</ele>
        <time>2020-06-24T20:13:14Z</time>
      </trkpt>
      <trkpt lat="48.71198" lon="1.84231">
        <ele>178</ele>
        <time>2020-06-24T20:14:54Z</time>
      </trkpt>
      <trkpt lat="48.71555" lon="1.84502">
        <ele>180</ele>
        <time>2020-06-24T20:23:47Z</time>
      </trkpt>
      <trkpt lat="48.71828" lon="1.83598">
        <ele>181</ele>
        <time>2020-06-24T20:38:22Z</time>
      </trkpt>
      <trkpt lat="48.71983" lon="1.83104">
        <ele>173</ele>
        <time>2020-06-24T20:46:24Z</time>
      </trkpt>
      <trkpt lat="48.72262" lon="1.82276">
        <ele>176</ele>
        <time>2020-06-24T21:00:02Z</time>
      </trkpt>
      <trkpt lat="48.72668" lon="1.8105">
        <ele>182</ele>
        <time>2020-06-24T21:20:10Z</time>
      </trkpt>
      <trkpt lat="48.72458" lon="1.80716">
        <ele>176</ele>
        <time>2020-06-24T21:26:56Z</time>
      </trkpt>
      <trkpt lat="48.72676" lon="1.80118">
        <ele>177</ele>
        <time>2020-06-24T21:36:58Z</time>
      </trkpt>
      <trkpt lat="48.72322" lon="1.79851">
        <ele>184</ele>
        <time>2020-06-24T21:45:45Z</time>
      </trkpt>
      <trkpt lat="48.72548" lon="1.79184">
        <ele>182</ele>
        <time>2020-06-24T21:56:45Z</time>
      </trkpt>
      <trkpt lat="48.72292" lon="1.7908">
        <ele>179</ele>
        <time>2020-06-24T22:02:39Z</time>
      </trkpt>
      <trkpt lat="48.72028" lon="1.78959">
        <ele>175</ele>
        <time>2020-06-24T22:08:47Z</time>
      </trkpt>
      <trkpt lat="48.71897" lon="1.78765">
        <ele>176</ele>
        <time>2020-06-24T22:12:52Z</time>
      </trkpt>
      <trkpt lat="48.71751" lon="1.78565">
        <ele>179</ele>
        <time>2020-06-24T22:17:14Z</time>
      </trkpt>
      <trkpt lat="48.71661" lon="1.78501">
        <ele>183</ele>
        <time>2020-06-24T22:19:27Z</time>
      </trkpt>
      <trkpt lat="48.71647" lon="1.78358">
        <ele>178</ele>
        <time>2020-06-24T22:21:34Z</time>
      </trkpt>
      <trkpt lat="48.71421" lon="1.78261">
        <ele>177</ele>
        <time>2020-06-24T22:26:48Z</time>
      </trkpt>
      <trkpt lat="48.71271" lon="1.78197">
        <ele>176</ele>
        <time>2020-06-24T22:30:15Z</time>
      </trkpt>
      <trkpt lat="48.71133" lon="1.78009">
        <ele>172</ele>
        <time>2020-06-24T22:34:23Z</time>
      </trkpt>
      <trkpt lat="48.71072" lon="1.782">
        <ele>173</ele>
        <time>2020-06-24T22:37:30Z</time>
      </trkpt>
      <trkpt lat="48.70994" lon="1.78243">
        <ele>173</ele>
        <time>2020-06-24T22:39:21Z</time>
      </trkpt>
      <trkpt lat="48.70818" lon="1.78619">
        <ele>181</ele>
        <time>2020-06-24T22:46:07Z</time>
      </trkpt>
    </trkseg>
  </trk>
</gpx>